Time;durP1;ratioP1;P1;durP2;ratioP2;P2;SDS_P1;SDS_P2;PMS_P1;PMS_P2;Temp;Humidity;BMP_temperature;BMP_pressure;BME280_temperature;BME280_humidity;BME280_pressure;Samples;Min_cycle;Max_cycle;Signal;HPM_P1;HPM_P2
2023/07/07 00:02:10;;;;;;;1.30;0.93;;;24.50;48.90;;;;;;6149762;29;20028;-54
2023/07/07 00:05:12;;;;;;;1.25;0.93;;;24.40;48.40;;;;;;6149572;29;20050;-56
2023/07/07 00:08:14;;;;;;;2.10;0.93;;;24.70;49.00;;;;;;6142568;29;20040;-55
2023/07/07 00:11:18;;;;;;;1.10;0.73;;;24.50;48.60;;;;;;6130083;29;20052;-52
2023/07/07 00:14:23;;;;;;;1.70;0.90;;;24.50;48.90;;;;;;6147279;28;20060;-52
2023/07/07 00:17:26;;;;;;;1.65;0.80;;;24.60;48.70;;;;;;6143503;29;20044;-56
2023/07/07 00:20:31;;;;;;;1.42;0.80;;;24.60;48.90;;;;;;6137915;29;20043;-55
2023/07/07 00:23:37;;;;;;;1.92;0.93;;;24.50;48.70;;;;;;6124519;29;20044;-54
2023/07/07 00:26:39;;;;;;;1.33;0.70;;;24.50;48.90;;;;;;6127186;29;20044;-54
2023/07/07 00:29:41;;;;;;;1.65;0.90;;;24.70;49.00;;;;;;6132480;29;20063;-55
2023/07/07 00:32:45;;;;;;;1.00;0.88;;;24.40;48.90;;;;;;6112531;29;20067;-51
2023/07/07 00:35:47;;;;;;;1.52;1.10;;;24.60;49.00;;;;;;6126444;29;20235;-52
2023/07/07 00:38:51;;;;;;;2.10;1.33;;;24.50;49.10;;;;;;6147640;29;20049;-52
2023/07/07 00:41:52;;;;;;;2.17;1.10;;;24.50;49.00;;;;;;6122956;28;20044;-59
2023/07/07 00:45:11;;;;;;;2.17;1.40;;;24.40;49.20;;;;;;6112048;29;20670;-58
2023/07/07 00:48:16;;;;;;;1.63;1.10;;;23.10;48.60;;;;;;6093828;29;20040;-59
2023/07/07 00:51:23;;;;;;;2.55;1.17;;;24.40;49.40;;;;;;6119124;29;20058;-59
2023/07/07 00:54:32;;;;;;;1.52;1.00;;;24.30;49.50;;;;;;6121230;29;20130;-59
2023/07/07 00:57:35;;;;;;;1.52;0.80;;;24.40;49.70;;;;;;6112963;29;20040;-59
2023/07/07 01:00:41;;;;;;;1.70;1.10;;;24.40;49.70;;;;;;6121188;29;20135;-59
2023/07/07 01:03:46;;;;;;;2.13;0.98;;;24.20;49.60;;;;;;6107050;29;20047;-60
2023/07/07 01:06:51;;;;;;;1.13;0.75;;;24.30;49.70;;;;;;6101792;29;20039;-60
2023/07/07 01:09:53;;;;;;;2.95;1.20;;;24.50;49.90;;;;;;6134740;29;20064;-51
2023/07/07 01:12:55;;;;;;;1.77;1.13;;;24.30;49.60;;;;;;6145024;29;20051;-56
2023/07/07 01:16:16;;;;;;;1.33;0.90;;;24.40;50.00;;;;;;6158689;28;20140;-56
2023/07/07 01:19:41;;;;;;;2.03;1.30;;;24.30;47.50;;;;;;6154246;28;20043;-52
2023/07/07 01:23:05;;;;;;;1.17;0.60;;;24.50;50.10;;;;;;6156914;29;20050;-54
2023/07/07 01:26:26;;;;;;;2.13;0.80;;;24.30;50.10;;;;;;6155363;29;20051;-52
2023/07/07 01:29:47;;;;;;;0.80;0.65;;;24.40;50.10;;;;;;6135630;29;20050;-53
2023/07/07 01:32:51;;;;;;;3.38;0.63;;;24.30;50.10;;;;;;6150081;29;20030;-54
2023/07/07 01:35:53;;;;;;;1.92;0.90;;;24.00;50.00;;;;;;6150211;29;20024;-54
2023/07/07 01:38:57;;;;;;;1.45;0.88;;;24.40;50.30;;;;;;6152579;28;20028;-56
2023/07/07 01:42:04;;;;;;;1.23;1.00;;;24.30;50.60;;;;;;6146042;28;20112;-53
2023/07/07 01:45:12;;;;;;;1.40;1.05;;;24.30;50.70;;;;;;6147885;29;20031;-53
2023/07/07 01:48:28;;;;;;;0.90;0.80;;;24.10;50.70;;;;;;6151095;28;20024;-51
2023/07/07 01:51:36;;;;;;;1.70;0.80;;;24.30;50.60;;;;;;6157437;28;20030;-51
2023/07/07 01:54:42;;;;;;;1.83;0.90;;;24.20;50.60;;;;;;6158175;29;20058;-51
2023/07/07 01:57:49;;;;;;;1.60;1.10;;;24.20;50.60;;;;;;6154908;29;20036;-49
2023/07/07 02:00:53;;;;;;;1.52;0.80;;;24.30;50.70;;;;;;6156596;29;20070;-54
2023/07/07 02:03:55;;;;;;;2.80;0.70;;;24.30;50.80;;;;;;6156453;28;20064;-51
2023/07/07 02:06:58;;;;;;;1.58;0.73;;;24.20;50.80;;;;;;6156518;29;20094;-53
2023/07/07 02:09:59;;;;;;;0.85;0.60;;;24.20;51.00;;;;;;6154006;29;20047;-54
2023/07/07 02:13:01;;;;;;;1.00;0.80;;;24.30;50.90;;;;;;6154584;29;20028;-54
2023/07/07 02:16:07;;;;;;;0.93;0.70;;;24.20;50.80;;;;;;6152822;29;20035;-55
2023/07/07 02:19:12;;;;;;;1.45;0.50;;;24.20;50.70;;;;;;6153576;28;20075;-53
2023/07/07 02:22:13;;;;;;;0.70;0.60;;;24.20;50.60;;;;;;6149669;29;20046;-56
2023/07/07 02:25:16;;;;;;;0.93;0.70;;;24.20;50.70;;;;;;6144449;29;20036;-54
2023/07/07 02:28:17;;;;;;;1.05;0.50;;;23.90;50.10;;;;;;6145876;29;20023;-56
2023/07/07 02:31:24;;;;;;;0.80;0.70;;;24.30;50.70;;;;;;6155346;28;20031;-56
2023/07/07 02:34:28;;;;;;;1.23;0.75;;;24.20;50.60;;;;;;6148668;28;20044;-56
2023/07/07 02:37:30;;;;;;;1.90;0.73;;;24.10;50.60;;;;;;6151744;29;20046;-54
2023/07/07 02:40:31;;;;;;;1.67;1.10;;;24.40;50.80;;;;;;6147521;29;20245;-53
2023/07/07 02:43:32;;;;;;;1.77;1.00;;;24.60;51.10;;;;;;6152441;29;20051;-56
2023/07/07 02:46:37;;;;;;;1.75;1.00;;;24.20;50.60;;;;;;6145059;29;20052;-55
2023/07/07 02:49:39;;;;;;;1.45;0.90;;;24.30;51.50;;;;;;6133088;29;20028;-56
2023/07/07 02:52:41;;;;;;;1.98;1.02;;;24.20;51.20;;;;;;6134443;29;20028;-54
2023/07/07 02:55:45;;;;;;;1.13;0.70;;;24.20;51.30;;;;;;6144232;28;20048;-56
2023/07/07 02:58:47;;;;;;;0.85;0.60;;;24.10;51.10;;;;;;6135917;29;20048;-53
2023/07/07 03:01:49;;;;;;;0.60;0.50;;;24.10;51.20;;;;;;6140094;29;20147;-52
2023/07/07 03:04:51;;;;;;;1.48;0.80;;;24.20;51.20;;;;;;6139157;29;20067;-52
2023/07/07 03:07:54;;;;;;;1.05;0.75;;;23.80;51.00;;;;;;6139843;29;20063;-54
2023/07/07 03:10:57;;;;;;;0.88;0.60;;;24.10;51.10;;;;;;6139459;29;20043;-52
2023/07/07 03:14:02;;;;;;;1.30;0.68;;;24.00;51.10;;;;;;6138581;29;20042;-52
2023/07/07 03:17:09;;;;;;;0.98;0.68;;;24.30;51.20;;;;;;6140369;29;20120;-55
2023/07/07 03:20:15;;;;;;;0.60;0.52;;;24.20;51.30;;;;;;6145856;29;20031;-53
2023/07/07 03:23:17;;;;;;;1.15;0.70;;;24.30;50.90;;;;;;6148314;28;20044;-53
2023/07/07 03:26:20;;;;;;;1.05;0.80;;;24.30;51.30;;;;;;6149259;29;20051;-51
2023/07/07 03:29:24;;;;;;;0.82;0.70;;;24.30;51.00;;;;;;6147732;29;20047;-54
2023/07/07 03:32:28;;;;;;;0.77;0.45;;;24.40;48.90;;;;;;6148436;29;20095;-53
2023/07/07 03:35:36;;;;;;;0.98;0.70;;;24.30;51.00;;;;;;6146876;29;20016;-55
2023/07/07 03:38:38;;;;;;;1.13;0.68;;;24.20;50.90;;;;;;6147498;29;20054;-54
2023/07/07 03:41:40;;;;;;;0.90;0.50;;;24.50;51.00;;;;;;6147146;29;20044;-52
2023/07/07 03:44:42;;;;;;;1.30;0.77;;;24.30;51.00;;;;;;6144098;29;20046;-54
2023/07/07 03:47:44;;;;;;;1.05;0.80;;;24.30;50.90;;;;;;6146925;29;20046;-53
2023/07/07 03:50:56;;;;;;;0.93;0.63;;;24.30;51.00;;;;;;6146005;29;20050;-55
2023/07/07 03:53:58;;;;;;;0.70;0.50;;;24.30;51.00;;;;;;6146522;29;20042;-52
2023/07/07 03:56:59;;;;;;;0.93;0.52;;;24.20;51.00;;;;;;6146865;29;20487;-54
2023/07/07 04:00:02;;;;;;;0.80;0.70;;;24.30;50.80;;;;;;6147340;29;20046;-52
2023/07/07 04:03:15;;;;;;;0.95;0.60;;;24.20;51.10;;;;;;6148095;28;20032;-54
2023/07/07 04:06:20;;;;;;;1.20;0.80;;;24.30;50.80;;;;;;6146237;29;20048;-54
2023/07/07 04:09:23;;;;;;;1.10;0.82;;;24.30;50.90;;;;;;6130062;29;20059;-55
2023/07/07 04:12:24;;;;;;;1.65;0.80;;;24.30;50.80;;;;;;6143301;29;20054;-54
2023/07/07 04:15:26;;;;;;;0.93;0.70;;;24.30;50.90;;;;;;6145287;29;20042;-53
2023/07/07 04:18:28;;;;;;;0.73;0.50;;;24.30;51.00;;;;;;6144555;29;20044;-54
2023/07/07 04:21:30;;;;;;;1.10;0.57;;;24.20;51.50;;;;;;6144658;29;20028;-52
2023/07/07 04:24:31;;;;;;;0.90;0.40;;;24.30;51.00;;;;;;6144290;29;20091;-53
2023/07/07 04:27:33;;;;;;;1.00;0.60;;;24.20;51.00;;;;;;6146697;29;20039;-50
2023/07/07 04:30:34;;;;;;;1.17;0.68;;;24.20;51.00;;;;;;6145857;29;20043;-53
2023/07/07 04:33:36;;;;;;;1.25;0.60;;;24.20;51.10;;;;;;6146230;28;20039;-55
2023/07/07 04:36:39;;;;;;;0.80;0.68;;;24.20;51.00;;;;;;6146383;29;20478;-52
2023/07/07 04:39:40;;;;;;;1.13;0.60;;;24.10;51.10;;;;;;6146506;29;20091;-55
2023/07/07 04:42:42;;;;;;;0.90;0.63;;;24.20;50.80;;;;;;6147012;29;20046;-53
2023/07/07 04:45:44;;;;;;;0.57;0.50;;;24.20;51.30;;;;;;6146082;29;20032;-51
2023/07/07 04:48:47;;;;;;;0.93;0.65;;;24.20;51.20;;;;;;6126762;29;20555;-54
2023/07/07 04:51:49;;;;;;;0.57;0.55;;;24.20;51.70;;;;;;6097149;29;20080;-49
2023/07/07 04:54:51;;;;;;;0.90;0.60;;;24.30;51.10;;;;;;6095585;29;20431;-55
2023/07/07 04:57:52;;;;;;;1.60;0.60;;;24.20;51.30;;;;;;6099501;29;20495;-54
2023/07/07 05:01:07;;;;;;;1.52;0.90;;;23.80;51.10;;;;;;6097591;29;20095;-53
2023/07/07 05:04:10;;;;;;;1.25;0.80;;;24.20;51.30;;;;;;6084215;29;20036;-54
2023/07/07 05:07:12;;;;;;;0.80;0.50;;;24.20;51.50;;;;;;6084061;29;20040;-52
2023/07/07 05:10:14;;;;;;;1.17;0.73;;;24.20;51.60;;;;;;6086393;29;20499;-54
2023/07/07 05:13:16;;;;;;;1.13;0.60;;;23.70;51.30;;;;;;6087199;29;20642;-54
2023/07/07 05:16:20;;;;;;;1.20;0.90;;;24.20;52.00;;;;;;6089495;29;20095;-54
2023/07/07 05:19:21;;;;;;;0.60;0.60;;;24.10;51.50;;;;;;6086648;29;20478;-52
2023/07/07 05:22:23;;;;;;;1.75;0.75;;;24.10;51.70;;;;;;6086644;29;20044;-55
2023/07/07 05:25:28;;;;;;;2.08;1.00;;;23.90;51.40;;;;;;6089236;29;20107;-50
2023/07/07 05:28:29;;;;;;;1.67;1.15;;;24.20;52.10;;;;;;6090124;29;20414;-52
2023/07/07 05:31:32;;;;;;;1.98;1.10;;;23.70;51.80;;;;;;6093663;29;20039;-54
2023/07/07 05:34:34;;;;;;;2.20;1.30;;;24.20;52.00;;;;;;6087439;29;20054;-55
2023/07/07 05:37:36;;;;;;;1.55;1.10;;;24.20;52.30;;;;;;6092549;29;20044;-52
2023/07/07 05:40:39;;;;;;;1.70;1.15;;;24.10;51.90;;;;;;6091624;29;20042;-57
2023/07/07 05:43:41;;;;;;;2.40;1.20;;;24.20;51.70;;;;;;6082488;29;20040;-53
2023/07/07 05:46:43;;;;;;;1.40;1.00;;;23.80;52.30;;;;;;6091807;29;20040;-56
2023/07/07 05:49:53;;;;;;;1.33;0.80;;;24.10;52.20;;;;;;6089454;29;20082;-55
2023/07/07 05:52:55;;;;;;;1.40;0.80;;;24.00;52.10;;;;;;6088547;29;20056;-57
2023/07/07 05:56:03;;;;;;;1.30;0.93;;;23.80;52.10;;;;;;6087927;29;20061;-54
2023/07/07 05:59:05;;;;;;;0.90;0.73;;;23.70;52.10;;;;;;6090174;29;20562;-56
2023/07/07 06:02:10;;;;;;;0.82;0.80;;;23.80;51.80;;;;;;6088852;29;20044;-54
2023/07/07 06:05:15;;;;;;;1.08;0.70;;;24.00;51.90;;;;;;6087819;29;20454;-53
2023/07/07 06:08:17;;;;;;;0.70;0.70;;;24.20;49.80;;;;;;6100429;29;20040;-56
2023/07/07 06:11:19;;;;;;;1.10;0.95;;;24.10;52.20;;;;;;6100382;29;20042;-55
2023/07/07 06:14:20;;;;;;;1.80;0.90;;;24.20;52.60;;;;;;6095296;29;20055;-52
2023/07/07 06:17:22;;;;;;;0.85;0.80;;;24.20;52.40;;;;;;6096737;29;20527;-53
2023/07/07 06:20:25;;;;;;;1.63;0.85;;;23.80;52.10;;;;;;6094737;29;20068;-54
2023/07/07 06:23:27;;;;;;;0.98;0.85;;;24.20;53.20;;;;;;6076899;29;20039;-52
2023/07/07 06:26:29;;;;;;;0.70;0.70;;;24.10;52.30;;;;;;6093755;29;20040;-54
2023/07/07 06:29:32;;;;;;;0.90;0.75;;;24.10;52.60;;;;;;6096005;29;20038;-54
2023/07/07 06:32:34;;;;;;;1.23;0.73;;;24.10;52.50;;;;;;6074566;29;20043;-52
2023/07/07 06:35:39;;;;;;;0.70;0.60;;;24.00;52.50;;;;;;6072107;29;20051;-56
2023/07/07 06:38:45;;;;;;;1.08;0.73;;;24.10;52.20;;;;;;6087560;29;20035;-56
2023/07/07 06:41:48;;;;;;;0.77;0.52;;;24.10;52.50;;;;;;6082599;29;20039;-54
2023/07/07 06:44:50;;;;;;;1.08;0.50;;;24.20;52.50;;;;;;6085838;29;20044;-56
2023/07/07 06:47:51;;;;;;;0.80;0.80;;;23.80;52.90;;;;;;6053173;29;20043;-56
2023/07/07 06:50:53;;;;;;;2.13;0.93;;;24.10;52.70;;;;;;6060416;29;20036;-56
2023/07/07 06:53:56;;;;;;;0.55;0.43;;;24.20;52.80;;;;;;6083213;29;20708;-52
2023/07/07 06:56:57;;;;;;;0.80;0.57;;;24.10;52.80;;;;;;6085845;29;20079;-53
2023/07/07 06:59:59;;;;;;;5.40;1.00;;;24.10;52.90;;;;;;6076845;29;20470;-54
2023/07/07 07:03:00;;;;;;;0.88;0.60;;;24.20;53.20;;;;;;6073505;29;20119;-54
2023/07/07 07:06:05;;;;;;;1.45;0.73;;;24.20;53.10;;;;;;6073875;29;20048;-55
2023/07/07 07:09:08;;;;;;;4.22;0.93;;;24.10;52.60;;;;;;6078357;29;20039;-58
2023/07/07 07:12:10;;;;;;;0.82;0.60;;;24.30;53.20;;;;;;6087261;29;20044;-54
2023/07/07 07:15:11;;;;;;;0.85;0.63;;;24.20;53.70;;;;;;6060730;29;20037;-58
2023/07/07 07:18:13;;;;;;;1.48;0.80;;;24.30;53.50;;;;;;6088780;29;20067;-58
2023/07/07 07:21:15;;;;;;;1.48;0.70;;;23.90;53.60;;;;;;6058450;29;20043;-58
2023/07/07 07:24:19;;;;;;;3.42;0.80;;;24.40;53.90;;;;;;6054878;29;20031;-57
2023/07/07 07:27:20;;;;;;;0.93;0.55;;;24.30;53.60;;;;;;6048909;29;20055;-58
2023/07/07 07:30:22;;;;;;;1.13;0.80;;;24.00;53.80;;;;;;6062004;29;20047;-57
2023/07/07 07:33:26;;;;;;;0.73;0.50;;;24.40;53.50;;;;;;6084688;29;20043;-58
2023/07/07 07:36:28;;;;;;;0.43;0.32;;;24.20;53.50;;;;;;6089550;29;20627;-57
2023/07/07 07:39:30;;;;;;;0.90;0.40;;;24.50;53.60;;;;;;6089703;29;20036;-58
2023/07/07 07:42:32;;;;;;;0.65;0.50;;;24.10;53.30;;;;;;6091090;29;20050;-57
2023/07/07 07:45:36;;;;;;;0.40;0.40;;;24.40;53.30;;;;;;6089246;29;20042;-57
2023/07/07 07:48:37;;;;;;;0.95;0.60;;;24.30;53.30;;;;;;6088348;29;20039;-57
2023/07/07 07:51:40;;;;;;;0.82;0.52;;;24.00;52.90;;;;;;6088815;29;20036;-57
2023/07/07 07:54:45;;;;;;;0.98;0.60;;;24.00;53.10;;;;;;6083817;29;20035;-58
2023/07/07 07:57:46;;;;;;;0.88;0.52;;;24.50;53.40;;;;;;6085216;29;20054;-57
2023/07/07 08:00:48;;;;;;;0.65;0.55;;;24.50;53.20;;;;;;6087079;29;20035;-57
2023/07/07 08:03:51;;;;;;;0.82;0.50;;;24.60;53.40;;;;;;6079827;29;20318;-57
2023/07/07 08:06:54;;;;;;;1.05;0.52;;;24.40;53.30;;;;;;6080812;29;20040;-56
2023/07/07 08:09:57;;;;;;;0.50;0.50;;;24.10;53.20;;;;;;6082676;29;20039;-56
2023/07/07 08:12:58;;;;;;;0.60;0.40;;;24.50;53.80;;;;;;6086396;29;20036;-55
2023/07/07 08:18:33;;;;;;;0.57;0.50;;;24.30;50.70;;;;;;6405393;27;20317;-58
2023/07/07 08:21:38;;;;;;;1.23;0.73;;;25.50;50.70;;;;;;6389647;27;20034;-58
2023/07/07 08:24:43;;;;;;;0.80;0.77;;;24.30;49.90;;;;;;6378070;27;20035;-58
2023/07/07 08:27:45;;;;;;;1.45;0.80;;;23.90;49.20;;;;;;6367188;27;20033;-58
2023/07/07 08:31:06;;;;;;;1.00;0.77;;;24.70;50.10;;;;;;6354175;27;20086;-58
2023/07/07 08:34:08;;;;;;;1.10;0.77;;;24.60;49.60;;;;;;6395747;27;20034;-58
2023/07/07 08:37:12;;;;;;;1.33;1.00;;;24.50;49.40;;;;;;6364573;27;20117;-58
2023/07/07 08:40:21;;;;;;;1.73;0.90;;;24.40;49.50;;;;;;6362298;27;20026;-58
2023/07/07 08:43:28;;;;;;;2.42;0.90;;;24.50;49.40;;;;;;6348185;27;20083;-58
2023/07/07 08:46:47;;;;;;;1.30;0.90;;;24.70;49.10;;;;;;6360282;27;20034;-58
2023/07/07 08:49:58;;;;;;;2.22;1.00;;;24.40;48.40;;;;;;6380234;27;20034;-58
2023/07/07 08:53:24;;;;;;;1.70;0.85;;;24.90;49.10;;;;;;6365059;27;20667;-58
2023/07/07 08:56:33;;;;;;;2.00;1.30;;;24.60;48.80;;;;;;6385401;27;20048;-59
2023/07/07 08:59:44;;;;;;;1.83;1.23;;;24.70;48.70;;;;;;6359318;27;20031;-59
2023/07/07 09:03:01;;;;;;;1.83;0.93;;;24.70;49.00;;;;;;6359602;27;20111;-59
2023/07/07 09:06:15;;;;;;;1.42;1.15;;;24.40;48.70;;;;;;6360932;27;20070;-58
2023/07/07 09:09:32;;;;;;;1.48;1.20;;;24.70;48.40;;;;;;6354299;27;20042;-58
2023/07/07 09:12:41;;;;;;;1.65;1.25;;;25.40;49.20;;;;;;6356366;27;20030;-59
2023/07/07 09:15:49;;;;;;;2.42;1.20;;;24.70;48.70;;;;;;6359658;27;20508;-59
2023/07/07 09:18:55;;;;;;;1.55;1.00;;;24.00;48.10;;;;;;6340135;27;20038;-58
2023/07/07 09:22:04;;;;;;;2.50;1.48;;;24.20;47.90;;;;;;6357931;27;20580;-58
2023/07/07 09:25:17;;;;;;;1.13;0.95;;;24.90;48.20;;;;;;6359486;27;20042;-58
2023/07/07 09:28:19;;;;;;;1.73;1.20;;;24.60;48.40;;;;;;6350920;27;20039;-58
2023/07/07 09:31:30;;;;;;;1.40;1.30;;;24.30;47.90;;;;;;6340277;27;20083;-58
2023/07/07 09:34:33;;;;;;;1.50;1.20;;;24.80;48.10;;;;;;6342742;27;20146;-59
2023/07/07 09:37:42;;;;;;;2.58;1.30;;;24.90;48.70;;;;;;6341851;27;20091;-59
2023/07/07 09:40:50;;;;;;;2.17;1.40;;;24.60;47.90;;;;;;6340873;27;20038;-59
2023/07/07 09:44:08;;;;;;;2.53;1.17;;;24.90;48.00;;;;;;6339528;27;20079;-59
2023/07/07 09:47:20;;;;;;;1.58;1.15;;;24.50;47.90;;;;;;6342968;27;20081;-58
2023/07/07 09:50:28;;;;;;;1.67;1.25;;;24.80;48.20;;;;;;6342341;27;20039;-58
2023/07/07 09:53:34;;;;;;;1.58;1.00;;;24.90;48.40;;;;;;6342997;27;20043;-58
2023/07/07 09:56:57;;;;;;;0.93;0.75;;;24.80;48.00;;;;;;6341488;27;20632;-58
2023/07/07 10:00:01;;;;;;;1.50;1.20;;;24.70;48.60;;;;;;6345147;27;20030;-54
2023/07/07 10:03:16;;;;;;;2.05;1.30;;;24.90;47.90;;;;;;6340022;27;20264;-55
2023/07/07 10:06:24;;;;;;;2.00;1.38;;;24.40;48.00;;;;;;6336563;27;20035;-52
2023/07/07 10:09:28;;;;;;;1.27;1.15;;;24.90;48.10;;;;;;6339253;27;20525;-51
2023/07/07 10:12:30;;;;;;;2.53;1.40;;;25.10;48.10;;;;;;6340610;27;20033;-53
2023/07/07 10:15:53;;;;;;;1.73;1.58;;;24.90;47.90;;;;;;6333918;27;20463;-55
2023/07/07 10:18:57;;;;;;;1.58;1.15;;;24.90;48.00;;;;;;6343046;27;20733;-53
2023/07/07 10:22:01;;;;;;;1.35;1.23;;;24.90;48.30;;;;;;6322910;27;20042;-52
2023/07/07 10:25:04;;;;;;;3.17;1.30;;;24.90;48.00;;;;;;6336717;27;20050;-53
2023/07/07 10:28:12;;;;;;;1.52;1.27;;;24.90;48.30;;;;;;6333249;27;20208;-51
2023/07/07 10:31:14;;;;;;;1.27;1.08;;;25.00;48.30;;;;;;6314187;27;20031;-55
2023/07/07 10:34:23;;;;;;;1.80;1.13;;;24.90;48.00;;;;;;6317501;27;20974;-54
2023/07/07 10:37:28;;;;;;;1.73;1.13;;;25.00;48.80;;;;;;6312612;27;20038;-56
2023/07/07 10:40:31;;;;;;;2.35;1.40;;;25.00;48.70;;;;;;6335921;27;20030;-55
2023/07/07 10:43:34;;;;;;;1.75;1.40;;;25.10;48.60;;;;;;6322291;27;20027;-56
2023/07/07 10:46:35;;;;;;;2.53;1.13;;;24.90;48.40;;;;;;6322591;27;20699;-55
2023/07/07 10:49:37;;;;;;;1.65;1.10;;;24.60;48.10;;;;;;6341948;27;20038;-53
2023/07/07 10:52:50;;;;;;;1.30;1.02;;;25.10;48.60;;;;;;6348272;27;20034;-56
2023/07/07 10:56:07;;;;;;;1.80;1.40;;;25.00;49.00;;;;;;6350411;27;20596;-53
2023/07/07 10:59:27;;;;;;;1.60;1.17;;;24.90;48.40;;;;;;6323318;27;20042;-59
2023/07/07 11:02:44;;;;;;;1.48;1.10;;;24.90;48.90;;;;;;6355191;27;20031;-60
2023/07/07 11:05:55;;;;;;;1.42;1.23;;;24.90;48.80;;;;;;6352421;27;20095;-60
2023/07/07 11:09:22;;;;;;;2.05;1.20;;;25.10;48.70;;;;;;6359145;27;20031;-60
2023/07/07 11:12:32;;;;;;;2.28;1.30;;;25.20;49.40;;;;;;6359432;27;20110;-60
2023/07/07 11:15:37;;;;;;;;;;;25.10;49.10;;;;;;6357474;27;20031;-60
2023/07/07 11:18:58;;;;;;;1.35;1.10;;;25.20;49.50;;;;;;6354717;27;19934;-60
2023/07/07 11:22:09;;;;;;;1.35;1.10;;;25.10;49.00;;;;;;6356398;27;20724;-60
2023/07/07 11:25:20;;;;;;;1.33;1.00;;;25.10;49.40;;;;;;6355698;27;20031;-60
2023/07/07 11:28:32;;;;;;;1.33;0.98;;;25.10;49.30;;;;;;6334044;27;20121;-60
2023/07/07 11:31:52;;;;;;;1.48;1.00;;;24.80;49.30;;;;;;6359901;27;20022;-60
2023/07/07 11:35:05;;;;;;;1.23;1.02;;;25.20;49.90;;;;;;6361207;27;20026;-60
2023/07/07 11:38:25;;;;;;;1.38;1.20;;;25.20;49.60;;;;;;6359588;27;20031;-60
2023/07/07 11:41:40;;;;;;;1.67;1.23;;;25.10;49.70;;;;;;6357844;27;20692;-60
2023/07/07 11:44:58;;;;;;;2.10;1.30;;;25.20;50.20;;;;;;6358572;27;20069;-61
2023/07/07 11:48:22;;;;;;;1.58;1.17;;;25.30;50.50;;;;;;6355573;27;20726;-60
2023/07/07 11:51:38;;;;;;;2.05;1.52;;;25.20;50.20;;;;;;6355963;27;20099;-59
2023/07/07 11:54:59;;;;;;;2.10;1.70;;;25.10;50.60;;;;;;6356061;27;20031;-61
2023/07/07 11:58:13;;;;;;;1.85;1.20;;;25.20;50.70;;;;;;6356394;27;20971;-62
2023/07/07 12:01:22;;;;;;;2.53;1.40;;;25.20;50.80;;;;;;6351882;27;20062;-61
2023/07/07 12:04:26;;;;;;;2.63;1.60;;;24.80;50.60;;;;;;6351093;27;20083;-61
2023/07/07 12:07:35;;;;;;;2.97;1.60;;;25.30;51.40;;;;;;6332683;27;20464;-61
2023/07/07 12:10:44;;;;;;;2.55;1.50;;;25.30;51.30;;;;;;6352448;27;20608;-60
2023/07/07 12:14:01;;;;;;;2.17;1.60;;;25.30;51.40;;;;;;6350305;27;20031;-60
2023/07/07 12:17:08;;;;;;;2.00;1.45;;;25.50;52.00;;;;;;6350476;27;20035;-61
2023/07/07 12:20:15;;;;;;;3.17;1.80;;;25.30;51.50;;;;;;6354398;27;20035;-64
2023/07/07 12:23:21;;;;;;;2.10;1.63;;;25.50;51.70;;;;;;6350647;27;20043;-63
2023/07/07 12:26:26;;;;;;;2.70;1.52;;;25.20;51.80;;;;;;6354307;27;20043;-62
2023/07/07 12:29:30;;;;;;;2.63;1.60;;;25.40;52.00;;;;;;6329688;27;20722;-60
2023/07/07 12:32:33;;;;;;;1.52;1.30;;;25.50;51.80;;;;;;6353622;27;20262;-60
2023/07/07 12:35:47;;;;;;;2.40;1.45;;;25.50;52.10;;;;;;6354272;27;20047;-59
2023/07/07 12:38:49;;;;;;;3.80;1.60;;;25.40;52.00;;;;;;6332962;27;20041;-60
2023/07/07 12:41:51;;;;;;;1.98;1.40;;;25.50;52.20;;;;;;6332800;27;20031;-61
2023/07/07 12:44:53;;;;;;;3.25;1.80;;;25.50;52.00;;;;;;6354769;27;20038;-59
2023/07/07 12:48:01;;;;;;;1.63;1.15;;;25.60;52.30;;;;;;6343965;27;20046;-60
2023/07/07 12:51:05;;;;;;;2.15;1.40;;;25.60;52.30;;;;;;6332516;27;20110;-61
2023/07/07 12:54:28;;;;;;;2.03;1.60;;;25.50;52.20;;;;;;6331932;27;20031;-62
2023/07/07 12:57:32;;;;;;;3.85;1.60;;;25.70;52.10;;;;;;6352612;27;20112;-61
2023/07/07 13:00:38;;;;;;;1.77;1.17;;;25.60;52.00;;;;;;6355252;27;20092;-61
2023/07/07 13:03:45;;;;;;;3.13;1.50;;;25.30;51.80;;;;;;6344883;27;20966;-60
2023/07/07 13:07:03;;;;;;;1.67;1.30;;;25.50;52.00;;;;;;6318531;27;20045;-60
2023/07/07 13:10:33;;;;;;;2.15;1.30;;;25.40;52.30;;;;;;6305842;27;20088;-58
2023/07/07 13:13:37;;;;;;;3.13;1.75;;;25.70;52.20;;;;;;6317286;27;20054;-58
2023/07/07 13:16:39;;;;;;;1.85;1.10;;;25.70;52.10;;;;;;6346338;27;20034;-59
2023/07/07 13:19:46;;;;;;;2.33;1.30;;;25.80;52.50;;;;;;6350844;27;20043;-59
2023/07/07 13:22:52;;;;;;;1.17;1.08;;;25.70;52.30;;;;;;6351764;27;20996;-60
2023/07/07 13:25:54;;;;;;;1.45;1.10;;;25.70;52.80;;;;;;6320677;27;20062;-59
2023/07/07 13:28:59;;;;;;;1.58;0.95;;;25.70;52.90;;;;;;6359610;27;20694;-59
2023/07/07 13:32:00;;;;;;;1.20;0.90;;;25.50;52.40;;;;;;6340245;27;20034;-58
2023/07/07 13:35:03;;;;;;;1.27;0.82;;;25.80;53.10;;;;;;6357547;27;20075;-59
2023/07/07 13:38:07;;;;;;;1.33;1.10;;;25.40;52.50;;;;;;6355002;27;20553;-58
2023/07/07 13:41:12;;;;;;;1.10;0.85;;;25.70;53.20;;;;;;6340448;27;20033;-57
2023/07/07 13:44:17;;;;;;;1.10;1.00;;;25.40;52.60;;;;;;6339837;27;20042;-58
2023/07/07 13:47:19;;;;;;;1.08;0.80;;;25.90;53.60;;;;;;6337229;27;20042;-58
2023/07/07 13:50:24;;;;;;;1.08;0.98;;;25.60;52.90;;;;;;6355132;27;20058;-58
2023/07/07 13:53:27;;;;;;;1.27;0.90;;;25.10;52.70;;;;;;6338466;27;20579;-57
2023/07/07 13:56:29;;;;;;;1.00;0.82;;;25.40;52.80;;;;;;6337784;27;20035;-58
2023/07/07 13:59:34;;;;;;;1.10;1.00;;;25.70;53.30;;;;;;6336215;27;20152;-58
2023/07/07 14:02:41;;;;;;;0.80;0.80;;;25.70;53.20;;;;;;6354152;27;20034;-58
2023/07/07 14:05:43;;;;;;;1.10;1.00;;;25.60;53.70;;;;;;6356313;27;20062;-58
2023/07/07 14:08:45;;;;;;;0.90;0.73;;;25.70;53.40;;;;;;6359187;27;20669;-57
2023/07/07 14:11:51;;;;;;;1.25;1.00;;;25.70;53.60;;;;;;6355365;27;20110;-58
2023/07/07 14:14:56;;;;;;;1.38;1.27;;;25.70;53.60;;;;;;6355287;27;20898;-58
2023/07/07 14:18:02;;;;;;;1.10;0.95;;;25.30;53.80;;;;;;6352386;27;20276;-58
2023/07/07 14:21:12;;;;;;;1.85;0.88;;;25.70;53.80;;;;;;6334195;27;20103;-58
2023/07/07 14:24:16;;;;;;;2.28;0.90;;;25.80;54.00;;;;;;6330928;27;20039;-58
2023/07/07 14:27:20;;;;;;;1.00;0.85;;;25.70;54.30;;;;;;6333207;27;20095;-58
2023/07/07 14:30:24;;;;;;;1.10;0.90;;;25.60;54.00;;;;;;6353753;27;20047;-58
2023/07/07 14:33:29;;;;;;;1.05;0.70;;;25.30;53.90;;;;;;6355673;27;20034;-58
2023/07/07 14:36:38;;;;;;;1.30;1.10;;;25.50;54.00;;;;;;6353166;27;20038;-58
2023/07/07 14:39:40;;;;;;;1.10;0.90;;;25.60;54.40;;;;;;6354478;27;20038;-58
2023/07/07 14:42:49;;;;;;;1.05;0.90;;;25.30;54.10;;;;;;6353693;27;20042;-57
2023/07/07 14:45:56;;;;;;;1.13;1.02;;;25.60;54.80;;;;;;6336296;27;20035;-58
2023/07/07 14:49:15;;;;;;;1.10;0.90;;;25.30;54.20;;;;;;6321083;27;20425;-58
2023/07/07 14:52:30;;;;;;;1.40;1.15;;;25.50;54.50;;;;;;6340599;27;20039;-58
2023/07/07 14:55:31;;;;;;;2.08;1.00;;;25.60;54.60;;;;;;6322473;27;20393;-58
2023/07/07 14:58:33;;;;;;;1.10;0.70;;;25.50;54.90;;;;;;6358018;27;20035;-58
2023/07/07 15:01:37;;;;;;;1.20;0.98;;;25.40;55.00;;;;;;6338597;27;20056;-58
2023/07/07 15:04:38;;;;;;;1.27;1.00;;;25.70;55.10;;;;;;6357545;27;20059;-58
2023/07/07 15:07:42;;;;;;;0.95;0.80;;;25.40;54.70;;;;;;6350061;27;20143;-57
2023/07/07 15:10:44;;;;;;;0.85;0.80;;;25.50;55.20;;;;;;6350486;27;20035;-57
2023/07/07 15:13:46;;;;;;;1.33;0.80;;;25.60;55.30;;;;;;6355005;27;20750;-58
2023/07/07 15:16:48;;;;;;;1.20;1.00;;;25.60;55.20;;;;;;6357663;27;20038;-57
2023/07/07 15:19:52;;;;;;;1.30;1.00;;;25.50;55.00;;;;;;6354098;27;20062;-58
2023/07/07 15:22:54;;;;;;;1.30;1.00;;;25.80;55.40;;;;;;6352157;27;20035;-58
2023/07/07 15:25:57;;;;;;;1.25;1.15;;;25.50;55.20;;;;;;6357384;27;20031;-58
2023/07/07 15:29:00;;;;;;;1.20;1.02;;;25.50;55.10;;;;;;6358125;27;20087;-58
2023/07/07 15:32:08;;;;;;;3.10;1.10;;;25.60;55.20;;;;;;6359960;27;20038;-57
2023/07/07 15:35:13;;;;;;;1.35;1.00;;;25.50;55.20;;;;;;6340827;27;20695;-58
2023/07/07 15:38:46;;;;;;;1.90;1.00;;;25.70;55.30;;;;;;6379937;27;20719;-58
2023/07/07 15:41:48;;;;;;;1.15;0.85;;;25.50;55.30;;;;;;6323190;27;20038;-57
2023/07/07 15:44:49;;;;;;;1.65;0.90;;;25.30;55.10;;;;;;6363033;27;21073;-58
2023/07/07 15:47:51;;;;;;;1.33;0.98;;;25.20;54.90;;;;;;6374157;27;20027;-57
2023/07/07 15:50:52;;;;;;;1.40;1.02;;;24.30;54.80;;;;;;6383250;27;20067;-58
2023/07/07 15:53:55;;;;;;;2.10;1.00;;;25.20;55.00;;;;;;6378994;27;20477;-57
2023/07/07 15:56:57;;;;;;;1.42;1.30;;;25.60;55.20;;;;;;6372586;27;20035;-57
2023/07/07 15:59:59;;;;;;;1.48;1.00;;;25.50;55.20;;;;;;6364115;27;20035;-57
2023/07/07 16:03:00;;;;;;;1.33;1.20;;;25.60;55.20;;;;;;6355101;27;20031;-56
2023/07/07 16:06:02;;;;;;;2.38;1.15;;;25.30;55.30;;;;;;6347217;27;20102;-58
2023/07/07 16:09:10;;;;;;;1.30;1.05;;;25.20;56.00;;;;;;6355029;27;20164;-57
2023/07/07 16:12:14;;;;;;;1.58;1.00;;;25.60;55.70;;;;;;6336184;27;20060;-59